createdAt,value
2017-12-31T00:01:06.537Z,22.20
2017-12-31T00:03:34.191Z,22.20
2017-12-31T00:06:01.835Z,22.20
2017-12-31T00:08:29.409Z,22.20
2017-12-31T00:10:56.953Z,22.20
2017-12-31T00:13:24.531Z,22.20
2017-12-31T00:15:52.127Z,22.20
2017-12-31T00:18:20.032Z,22.20
2017-12-31T00:20:47.755Z,22.20
2017-12-31T00:23:15.391Z,22.20
2017-12-31T00:25:43.011Z,22.20
2017-12-31T00:28:10.619Z,22.20
2017-12-31T00:30:39.030Z,22.20
2017-12-31T00:33:06.625Z,22.20
2017-12-31T00:35:34.184Z,22.20
2017-12-31T00:38:01.811Z,22.20
2017-12-31T00:40:29.398Z,22.20
2017-12-31T00:42:57.057Z,22.20
2017-12-31T00:45:24.698Z,22.20
2017-12-31T00:47:52.294Z,22.20
2017-12-31T00:50:19.868Z,22.20
2017-12-31T00:52:47.483Z,22.10
2017-12-31T00:55:15.062Z,22.20
2017-12-31T00:57:42.695Z,22.20
2017-12-31T01:00:10.986Z,22.10
2017-12-31T01:02:38.541Z,22.10
2017-12-31T01:05:06.131Z,22.10
2017-12-31T01:07:33.723Z,22.20
2017-12-31T01:10:02.184Z,22.10
2017-12-31T01:12:29.770Z,22.10
2017-12-31T01:14:58.106Z,22.10
2017-12-31T01:17:25.723Z,22.10
2017-12-31T01:19:54.094Z,22.10
2017-12-31T01:22:22.452Z,22.30
2017-12-31T01:24:50.816Z,22.10
2017-12-31T01:27:18.366Z,22.10
2017-12-31T01:29:45.952Z,22.10
2017-12-31T01:32:13.672Z,22.10
2017-12-31T01:34:41.316Z,22.10
2017-12-31T01:37:08.888Z,22.10
2017-12-31T01:39:36.506Z,22.10
2017-12-31T01:42:04.827Z,22.10
2017-12-31T01:44:32.462Z,22.10
2017-12-31T01:47:00.026Z,22.10
2017-12-31T01:49:27.608Z,22.10
2017-12-31T01:51:55.206Z,22.10
2017-12-31T01:54:23.540Z,22.10
2017-12-31T01:56:51.116Z,22.10
2017-12-31T01:59:18.672Z,22.00
2017-12-31T02:01:46.257Z,22.10
2017-12-31T02:04:13.895Z,22.00
2017-12-31T02:06:41.460Z,22.10
2017-12-31T02:09:08.998Z,22.10
2017-12-31T02:11:36.684Z,22.10
2017-12-31T02:14:04.494Z,22.10
2017-12-31T02:16:32.861Z,22.10
2017-12-31T02:19:01.195Z,22.00
2017-12-31T02:21:28.776Z,22.00
2017-12-31T02:23:56.337Z,22.00
2017-12-31T02:26:23.925Z,22.10
2017-12-31T02:28:52.273Z,22.00
2017-12-31T02:31:19.838Z,22.00
2017-12-31T02:33:47.422Z,22.00
2017-12-31T02:36:15.797Z,22.00
2017-12-31T02:38:44.122Z,22.10
2017-12-31T02:41:11.774Z,22.00
2017-12-31T02:43:39.322Z,22.10
2017-12-31T02:46:06.909Z,22.10
2017-12-31T02:48:34.511Z,22.10
2017-12-31T02:51:02.821Z,22.10
2017-12-31T02:53:30.386Z,22.00
2017-12-31T02:55:57.941Z,22.00
2017-12-31T02:58:25.505Z,22.00
2017-12-31T03:00:53.093Z,22.00
2017-12-31T03:03:20.686Z,22.10
2017-12-31T03:05:49.215Z,22.00
2017-12-31T03:08:16.834Z,22.00
2017-12-31T03:10:44.391Z,22.10
2017-12-31T03:13:12.738Z,22.00
2017-12-31T03:15:40.387Z,22.00
2017-12-31T03:18:07.981Z,22.00
2017-12-31T03:20:35.689Z,22.00
2017-12-31T03:23:03.249Z,22.00
2017-12-31T03:25:30.856Z,22.00
2017-12-31T03:27:58.451Z,22.00
2017-12-31T03:30:26.001Z,22.00
2017-12-31T03:32:54.341Z,22.00
2017-12-31T03:35:21.913Z,22.00
2017-12-31T03:37:49.579Z,22.00
2017-12-31T03:40:17.167Z,22.00
2017-12-31T03:42:44.777Z,22.00
2017-12-31T03:45:12.365Z,22.00
2017-12-31T03:47:39.965Z,22.00
2017-12-31T03:50:07.577Z,22.00
2017-12-31T03:52:35.213Z,22.00
2017-12-31T03:55:02.815Z,22.00
2017-12-31T03:57:31.133Z,22.00
2017-12-31T03:59:58.673Z,22.00
2017-12-31T04:02:26.287Z,22.00
2017-12-31T04:04:53.841Z,22.00
2017-12-31T04:07:21.481Z,22.00
2017-12-31T04:09:49.045Z,22.00
2017-12-31T04:12:16.634Z,22.00
2017-12-31T04:14:44.205Z,22.00
2017-12-31T04:17:12.599Z,22.00
2017-12-31T04:19:40.970Z,22.00
2017-12-31T04:22:09.311Z,22.00
2017-12-31T04:24:36.883Z,22.00
2017-12-31T04:27:04.477Z,22.00
2017-12-31T04:29:32.215Z,22.00
2017-12-31T04:31:59.825Z,22.00
2017-12-31T04:34:27.377Z,22.00
2017-12-31T04:36:55.117Z,22.00
2017-12-31T04:39:23.473Z,22.00
2017-12-31T04:41:51.025Z,22.00
2017-12-31T04:44:20.171Z,22.00
2017-12-31T04:46:47.747Z,22.00
2017-12-31T04:49:15.327Z,22.00
2017-12-31T04:51:42.891Z,22.00
2017-12-31T04:54:10.605Z,22.00
2017-12-31T04:56:38.153Z,22.00
2017-12-31T04:59:06.513Z,22.00
2017-12-31T05:01:34.068Z,22.00
2017-12-31T05:04:01.633Z,22.00
2017-12-31T05:06:30.022Z,22.00
2017-12-31T05:08:58.380Z,22.00
2017-12-31T05:11:27.461Z,22.00
2017-12-31T05:13:55.003Z,22.00
2017-12-31T05:16:22.586Z,22.00
2017-12-31T05:18:50.146Z,22.00
2017-12-31T05:21:17.713Z,22.00
2017-12-31T05:23:45.299Z,22.00
2017-12-31T05:26:13.665Z,22.00
2017-12-31T05:28:42.151Z,22.00
2017-12-31T05:31:10.499Z,22.00
2017-12-31T05:33:38.059Z,22.00
2017-12-31T05:36:05.661Z,22.00
2017-12-31T05:38:33.972Z,22.00
2017-12-31T05:41:01.583Z,22.00
2017-12-31T05:43:29.885Z,21.90
2017-12-31T05:45:57.417Z,22.00
2017-12-31T05:48:25.777Z,22.00
2017-12-31T05:50:53.367Z,22.00
2017-12-31T05:53:21.715Z,22.00
2017-12-31T05:55:49.257Z,21.90
2017-12-31T05:58:17.037Z,22.00
2017-12-31T06:00:44.598Z,22.00
2017-12-31T06:03:12.193Z,22.00
2017-12-31T06:05:40.653Z,22.00
2017-12-31T06:08:08.237Z,22.00
2017-12-31T06:10:36.576Z,22.00
2017-12-31T06:13:04.171Z,22.00
2017-12-31T06:15:32.505Z,22.00
2017-12-31T06:18:00.241Z,22.00
2017-12-31T06:20:27.813Z,22.00
2017-12-31T06:22:55.403Z,22.00
2017-12-31T06:25:23.041Z,22.00
2017-12-31T06:27:50.635Z,21.90
2017-12-31T06:30:18.349Z,22.00
2017-12-31T06:32:45.921Z,22.00
2017-12-31T06:35:13.515Z,22.00
2017-12-31T06:37:41.091Z,22.00
2017-12-31T06:40:09.753Z,22.00
2017-12-31T06:42:39.035Z,22.00
2017-12-31T06:45:06.694Z,22.00
2017-12-31T06:47:34.351Z,22.00
2017-12-31T06:50:01.947Z,21.90
2017-12-31T06:52:30.983Z,21.90
2017-12-31T06:54:58.569Z,22.00
2017-12-31T06:57:26.123Z,21.90
2017-12-31T06:59:53.688Z,22.00
2017-12-31T07:02:21.283Z,22.00
2017-12-31T07:04:48.861Z,22.00
2017-12-31T07:07:17.200Z,22.00
2017-12-31T07:09:44.737Z,22.00
2017-12-31T07:12:12.307Z,22.00
2017-12-31T07:14:39.893Z,22.00
2017-12-31T07:17:07.509Z,22.00
2017-12-31T07:19:35.099Z,22.00
2017-12-31T07:22:02.674Z,22.00
2017-12-31T07:24:30.296Z,22.00
2017-12-31T07:26:57.878Z,22.00
2017-12-31T07:29:25.418Z,22.10
2017-12-31T07:31:53.057Z,22.10
2017-12-31T07:34:20.641Z,22.10
2017-12-31T07:36:48.241Z,22.10
2017-12-31T07:39:15.802Z,22.20
2017-12-31T07:41:44.128Z,22.20
2017-12-31T07:44:11.705Z,22.20
2017-12-31T07:46:39.346Z,22.20
2017-12-31T07:49:06.907Z,22.20
2017-12-31T07:51:34.545Z,22.30
2017-12-31T07:54:02.138Z,22.30
2017-12-31T07:56:29.719Z,22.30
2017-12-31T07:58:57.321Z,22.30
2017-12-31T08:01:25.104Z,22.30
2017-12-31T08:03:52.670Z,22.30
2017-12-31T08:06:20.247Z,22.30
2017-12-31T08:08:47.942Z,22.30
2017-12-31T08:11:15.513Z,22.40
2017-12-31T08:13:43.830Z,22.40
2017-12-31T08:16:11.409Z,22.40
2017-12-31T08:18:38.984Z,22.40
2017-12-31T08:21:06.598Z,22.40
2017-12-31T08:23:34.134Z,22.40
2017-12-31T08:26:02.596Z,22.40
2017-12-31T08:28:31.682Z,22.40
2017-12-31T08:30:59.266Z,22.40
2017-12-31T08:33:27.622Z,22.40
2017-12-31T08:35:56.702Z,22.40
2017-12-31T08:38:24.418Z,22.40
2017-12-31T08:40:51.998Z,22.40
2017-12-31T08:43:19.557Z,22.50
2017-12-31T08:45:47.342Z,22.40
2017-12-31T08:48:14.926Z,22.40
2017-12-31T08:50:42.522Z,22.40
2017-12-31T08:53:10.124Z,22.40
2017-12-31T08:55:37.866Z,22.40
2017-12-31T08:58:05.464Z,22.40
2017-12-31T09:00:33.035Z,22.40
2017-12-31T09:03:01.487Z,22.40
2017-12-31T09:05:29.058Z,22.40
2017-12-31T09:07:56.619Z,22.40
2017-12-31T09:10:24.224Z,22.40
2017-12-31T09:12:51.793Z,22.40
2017-12-31T09:15:19.364Z,22.40
2017-12-31T09:17:47.012Z,22.40
2017-12-31T09:20:14.596Z,22.40
2017-12-31T09:22:42.174Z,22.40
2017-12-31T09:25:09.818Z,22.40
2017-12-31T09:27:37.403Z,22.40
2017-12-31T09:30:05.005Z,22.50
2017-12-31T09:32:33.380Z,22.50
2017-12-31T09:35:01.751Z,22.50
2017-12-31T09:37:29.340Z,22.50
2017-12-31T09:39:56.947Z,22.50
2017-12-31T09:42:24.569Z,22.50
2017-12-31T09:44:52.142Z,22.50
2017-12-31T09:47:19.804Z,22.50
2017-12-31T09:49:47.416Z,22.50
2017-12-31T09:52:15.790Z,22.60
2017-12-31T09:54:44.166Z,22.50
2017-12-31T09:57:12.568Z,22.60
2017-12-31T09:59:40.112Z,22.50
2017-12-31T10:02:08.443Z,22.60
2017-12-31T10:04:36.054Z,22.50
2017-12-31T10:07:03.665Z,22.60
2017-12-31T10:09:31.266Z,22.60
2017-12-31T10:11:59.660Z,22.70
2017-12-31T10:14:28.018Z,22.70
2017-12-31T10:16:55.636Z,22.70
2017-12-31T10:19:23.186Z,22.70
2017-12-31T10:21:50.762Z,22.80
2017-12-31T10:24:18.356Z,22.80
2017-12-31T10:26:45.952Z,22.80
2017-12-31T10:29:13.566Z,22.90
2017-12-31T10:31:41.182Z,22.90
2017-12-31T10:34:08.798Z,22.90
2017-12-31T10:36:36.388Z,22.90
2017-12-31T10:39:03.962Z,22.80
2017-12-31T10:41:31.558Z,22.80
2017-12-31T10:43:59.241Z,22.80
2017-12-31T10:46:26.894Z,22.80
2017-12-31T10:48:54.612Z,22.80
2017-12-31T10:51:22.228Z,22.80
2017-12-31T10:53:50.551Z,22.80
2017-12-31T10:56:18.212Z,22.70
2017-12-31T10:58:45.784Z,22.80
2017-12-31T11:01:13.369Z,22.70
2017-12-31T11:03:41.483Z,22.70
2017-12-31T11:06:09.156Z,22.70
2017-12-31T11:08:36.823Z,22.70
2017-12-31T11:11:04.386Z,22.70
2017-12-31T11:13:31.986Z,22.70
2017-12-31T11:15:59.591Z,22.70
2017-12-31T11:18:27.234Z,22.70
2017-12-31T11:20:55.588Z,22.70
2017-12-31T11:23:23.245Z,22.70
2017-12-31T11:25:50.831Z,22.70
2017-12-31T11:28:19.211Z,22.70
2017-12-31T11:30:47.599Z,22.70
2017-12-31T11:33:16.209Z,22.70
2017-12-31T11:35:43.785Z,22.70
2017-12-31T11:38:11.487Z,22.70
2017-12-31T11:40:39.055Z,22.70
2017-12-31T11:43:07.448Z,22.70
2017-12-31T11:45:35.754Z,22.70
2017-12-31T11:48:03.357Z,22.70
2017-12-31T11:50:31.283Z,22.70
2017-12-31T11:52:59.298Z,22.70
2017-12-31T11:55:26.891Z,22.70
2017-12-31T11:57:54.457Z,22.70
2017-12-31T12:00:22.067Z,22.70
2017-12-31T12:02:49.902Z,22.70
2017-12-31T12:05:17.511Z,22.70
2017-12-31T12:07:45.099Z,22.70
2017-12-31T12:10:12.717Z,22.70
2017-12-31T12:12:40.305Z,22.70
2017-12-31T12:15:08.817Z,22.70
2017-12-31T12:17:36.446Z,22.70
2017-12-31T12:20:04.806Z,22.70
2017-12-31T12:22:32.411Z,22.70
2017-12-31T12:25:00.007Z,22.70
2017-12-31T12:27:27.581Z,22.70
2017-12-31T12:29:55.199Z,22.70
2017-12-31T12:32:22.817Z,22.70
2017-12-31T12:34:51.275Z,22.70
2017-12-31T12:37:18.877Z,22.70
2017-12-31T12:39:46.467Z,22.70
2017-12-31T12:42:14.050Z,22.70
2017-12-31T12:44:41.817Z,22.70
2017-12-31T12:47:09.709Z,22.70
2017-12-31T12:49:38.366Z,22.70
2017-12-31T12:52:05.971Z,22.70
2017-12-31T12:54:34.333Z,22.70
2017-12-31T12:57:02.673Z,22.70
2017-12-31T12:59:30.281Z,22.70
2017-12-31T13:01:58.626Z,22.70
2017-12-31T13:04:26.309Z,22.70
2017-12-31T13:06:54.303Z,22.70
2017-12-31T13:09:22.675Z,22.70
2017-12-31T13:11:51.016Z,22.70
2017-12-31T13:14:18.624Z,22.70
2017-12-31T13:16:46.179Z,22.70
2017-12-31T13:19:14.543Z,22.70
2017-12-31T13:21:42.920Z,22.70
2017-12-31T13:24:11.338Z,22.70
2017-12-31T13:26:38.950Z,22.70
2017-12-31T13:29:06.548Z,22.70
2017-12-31T13:31:34.143Z,22.70
2017-12-31T13:34:01.914Z,22.70
2017-12-31T13:36:29.504Z,22.70
2017-12-31T13:38:57.203Z,22.70
2017-12-31T13:41:24.778Z,22.70
2017-12-31T13:43:52.411Z,22.70
2017-12-31T13:46:20.807Z,22.70
2017-12-31T13:48:48.382Z,22.70
2017-12-31T13:51:15.979Z,22.70
2017-12-31T13:53:43.539Z,22.70
2017-12-31T13:56:11.904Z,22.70
2017-12-31T13:58:39.460Z,22.70
2017-12-31T14:01:08.018Z,22.70
2017-12-31T14:03:35.594Z,22.70
2017-12-31T14:06:03.200Z,22.70
2017-12-31T14:08:31.682Z,22.70
2017-12-31T14:11:00.333Z,22.70
2017-12-31T14:13:27.895Z,22.70
2017-12-31T14:15:55.485Z,22.70
2017-12-31T14:18:23.914Z,22.70
2017-12-31T14:20:53.900Z,22.70
2017-12-31T14:23:22.062Z,22.80
2017-12-31T14:25:49.686Z,22.70
2017-12-31T14:28:17.270Z,22.70
2017-12-31T14:30:44.964Z,22.80
2017-12-31T14:33:12.614Z,22.80
2017-12-31T14:35:40.218Z,22.80
2017-12-31T14:38:07.812Z,22.80
2017-12-31T14:40:36.168Z,22.80
2017-12-31T14:43:03.774Z,22.80
2017-12-31T14:45:31.368Z,22.70
2017-12-31T14:47:58.970Z,22.70
2017-12-31T14:50:27.428Z,22.50
2017-12-31T14:52:55.030Z,22.50
2017-12-31T14:55:25.412Z,22.40
2017-12-31T14:57:53.044Z,22.40
2017-12-31T15:00:20.706Z,22.30
2017-12-31T15:02:48.294Z,22.30
2017-12-31T15:05:15.861Z,22.20
2017-12-31T15:07:43.779Z,22.20
2017-12-31T15:10:11.344Z,22.10
2017-12-31T15:12:38.974Z,22.00
2017-12-31T15:15:07.358Z,22.00
2017-12-31T15:17:35.166Z,22.00
2017-12-31T15:20:02.763Z,22.00
2017-12-31T15:22:30.364Z,22.00
2017-12-31T15:24:58.044Z,22.00
2017-12-31T15:27:25.642Z,22.00
2017-12-31T15:29:53.984Z,22.00
2017-12-31T15:32:21.574Z,22.00
2017-12-31T15:34:49.210Z,22.00
2017-12-31T15:37:16.788Z,22.00
2017-12-31T15:39:44.394Z,21.90
2017-12-31T15:42:11.978Z,21.90
2017-12-31T15:44:39.578Z,21.80
2017-12-31T15:47:07.188Z,21.80
2017-12-31T15:49:34.890Z,21.70
2017-12-31T15:52:02.484Z,21.70
2017-12-31T15:54:30.810Z,21.60
2017-12-31T15:56:58.406Z,21.60
2017-12-31T15:59:26.206Z,21.50
2017-12-31T16:01:54.094Z,21.50
2017-12-31T16:04:21.646Z,21.50
2017-12-31T16:06:49.197Z,21.50
2017-12-31T16:09:16.824Z,21.50
2017-12-31T16:11:45.262Z,21.40
2017-12-31T16:14:12.967Z,21.40
2017-12-31T16:16:40.563Z,21.40
2017-12-31T16:19:08.153Z,21.40
2017-12-31T16:21:35.776Z,21.40
2017-12-31T16:24:03.334Z,21.50
2017-12-31T16:26:30.990Z,21.50
2017-12-31T16:28:58.597Z,21.50
2017-12-31T16:31:26.240Z,21.50
2017-12-31T16:33:53.807Z,21.50
2017-12-31T16:36:21.427Z,21.50
2017-12-31T16:38:49.988Z,21.50
2017-12-31T16:41:17.799Z,21.50
2017-12-31T16:43:45.578Z,21.50
2017-12-31T16:46:13.345Z,21.50
2017-12-31T16:48:40.942Z,21.50
2017-12-31T16:51:10.090Z,21.40
2017-12-31T16:53:37.685Z,21.40
2017-12-31T16:56:05.549Z,21.40
2017-12-31T16:58:33.139Z,21.40
2017-12-31T17:01:01.504Z,21.30
2017-12-31T17:03:29.080Z,21.30
2017-12-31T17:05:57.447Z,21.30
2017-12-31T17:08:25.812Z,21.30
2017-12-31T17:10:53.383Z,21.30
2017-12-31T17:13:21.770Z,21.30
2017-12-31T17:15:50.102Z,21.20
2017-12-31T17:18:17.692Z,21.30
2017-12-31T17:20:45.279Z,21.20
2017-12-31T17:23:12.879Z,21.20
2017-12-31T17:25:40.480Z,21.20
2017-12-31T17:28:08.030Z,21.20
2017-12-31T17:30:35.641Z,21.20
2017-12-31T17:33:03.264Z,21.20
2017-12-31T17:35:31.626Z,21.20
2017-12-31T17:37:59.353Z,21.20
2017-12-31T17:40:26.942Z,21.20
2017-12-31T17:42:54.744Z,21.20
2017-12-31T17:45:23.098Z,21.20
2017-12-31T17:47:50.648Z,21.20
2017-12-31T17:50:18.301Z,21.10
2017-12-31T17:52:45.895Z,21.20
2017-12-31T17:55:14.249Z,21.10
2017-12-31T17:57:41.816Z,21.10
2017-12-31T18:00:09.467Z,21.10
2017-12-31T18:02:37.094Z,21.20
2017-12-31T18:05:04.715Z,21.00
2017-12-31T18:07:33.296Z,21.00
2017-12-31T18:10:01.677Z,21.10
2017-12-31T18:12:30.046Z,21.10
2017-12-31T18:14:57.642Z,21.00
2017-12-31T18:17:25.217Z,21.00
2017-12-31T18:19:52.815Z,21.00
2017-12-31T18:22:20.635Z,21.00
2017-12-31T18:24:48.226Z,21.00
2017-12-31T18:27:15.993Z,21.00
2017-12-31T18:29:43.615Z,21.00
2017-12-31T18:32:11.183Z,21.00
2017-12-31T18:34:38.861Z,21.00
2017-12-31T18:37:06.471Z,21.00
2017-12-31T18:39:34.829Z,21.00
2017-12-31T18:42:02.422Z,20.90
2017-12-31T18:44:30.007Z,20.90
2017-12-31T18:46:57.587Z,20.90
2017-12-31T18:49:25.177Z,21.00
2017-12-31T18:51:52.769Z,21.00
2017-12-31T18:54:20.390Z,21.10
2017-12-31T18:56:47.935Z,21.10
2017-12-31T18:59:15.647Z,21.20
2017-12-31T19:01:44.089Z,21.30
2017-12-31T19:04:11.695Z,21.20
2017-12-31T19:06:39.293Z,21.30
2017-12-31T19:09:06.899Z,21.30
2017-12-31T19:11:35.263Z,21.40
2017-12-31T19:14:03.023Z,21.40
2017-12-31T19:16:30.842Z,21.50
2017-12-31T19:18:58.411Z,21.50
2017-12-31T19:21:26.006Z,21.50
2017-12-31T19:23:53.765Z,21.50
2017-12-31T19:26:21.369Z,21.60
2017-12-31T19:28:48.953Z,21.60
2017-12-31T19:31:16.545Z,21.60
2017-12-31T19:33:45.609Z,21.60
2017-12-31T19:36:13.225Z,21.60
2017-12-31T19:38:41.589Z,21.70
2017-12-31T19:41:09.295Z,21.70
2017-12-31T19:43:36.835Z,21.70
2017-12-31T19:46:04.405Z,21.70
2017-12-31T19:48:31.987Z,21.70
2017-12-31T19:50:59.565Z,21.70
2017-12-31T19:53:27.122Z,21.70
2017-12-31T19:55:54.739Z,21.70
2017-12-31T19:58:23.087Z,21.80
2017-12-31T20:00:50.667Z,21.70
2017-12-31T20:03:18.989Z,21.80
2017-12-31T20:05:46.554Z,21.80
2017-12-31T20:08:14.171Z,21.80
2017-12-31T20:10:42.531Z,21.80
2017-12-31T20:13:10.123Z,21.80
2017-12-31T20:15:37.691Z,21.90
2017-12-31T20:18:05.294Z,21.90
2017-12-31T20:20:33.011Z,21.90
2017-12-31T20:23:01.515Z,21.90
2017-12-31T20:25:29.229Z,21.90
2017-12-31T20:27:57.579Z,21.90
2017-12-31T20:30:25.138Z,22.00
2017-12-31T20:32:52.799Z,22.00
2017-12-31T20:35:20.515Z,22.00
2017-12-31T20:37:48.363Z,22.00
2017-12-31T20:40:16.701Z,22.10
2017-12-31T20:42:44.265Z,22.00
2017-12-31T20:45:12.860Z,22.10
2017-12-31T20:47:40.491Z,22.00
2017-12-31T20:50:08.050Z,22.10
2017-12-31T20:52:35.631Z,22.10
2017-12-31T20:55:03.190Z,22.10
2017-12-31T20:57:30.794Z,22.10
2017-12-31T20:59:58.352Z,22.10
2017-12-31T21:02:25.976Z,22.20
2017-12-31T21:04:53.597Z,22.20
2017-12-31T21:07:22.814Z,22.20
2017-12-31T21:09:50.408Z,22.20
2017-12-31T21:12:18.742Z,22.20
2017-12-31T21:14:46.332Z,22.20
2017-12-31T21:17:13.947Z,22.20
2017-12-31T21:19:41.530Z,22.20
2017-12-31T21:22:09.116Z,22.20
2017-12-31T21:24:36.680Z,22.30
2017-12-31T21:27:05.190Z,22.20
2017-12-31T21:29:32.768Z,22.20
2017-12-31T21:32:00.404Z,22.20
2017-12-31T21:34:28.903Z,22.20
2017-12-31T21:36:56.552Z,22.20
2017-12-31T21:39:24.946Z,22.20
2017-12-31T21:41:52.548Z,22.20
2017-12-31T21:44:20.120Z,22.20
2017-12-31T21:46:47.708Z,22.20
2017-12-31T21:49:16.090Z,22.30
2017-12-31T21:51:43.628Z,22.30
2017-12-31T21:54:11.204Z,22.30
2017-12-31T21:56:39.526Z,22.30
2017-12-31T21:59:07.213Z,22.30
2017-12-31T22:01:34.762Z,22.30
2017-12-31T22:04:02.375Z,22.30
2017-12-31T22:06:30.064Z,22.30
2017-12-31T22:08:57.627Z,22.40
2017-12-31T22:11:25.226Z,22.40
2017-12-31T22:13:52.824Z,22.40
2017-12-31T22:16:20.456Z,22.40
2017-12-31T22:18:48.862Z,22.40
2017-12-31T22:21:16.634Z,22.40
2017-12-31T22:23:44.290Z,22.40
2017-12-31T22:26:11.875Z,22.40
2017-12-31T22:28:39.436Z,22.30
2017-12-31T22:31:07.041Z,22.40
2017-12-31T22:33:35.512Z,22.30
2017-12-31T22:36:04.632Z,22.30
2017-12-31T22:38:32.220Z,22.30
2017-12-31T22:40:59.821Z,22.30
2017-12-31T22:43:27.518Z,22.30
2017-12-31T22:45:55.154Z,22.30
2017-12-31T22:48:23.524Z,22.30
2017-12-31T22:50:51.106Z,22.30
2017-12-31T22:53:19.424Z,22.30
2017-12-31T22:55:47.026Z,22.30
2017-12-31T22:58:15.380Z,22.20
2017-12-31T23:00:42.922Z,22.30
2017-12-31T23:03:10.520Z,22.20
2017-12-31T23:05:38.082Z,22.20
2017-12-31T23:08:07.226Z,22.20
2017-12-31T23:10:34.864Z,22.20
2017-12-31T23:13:03.222Z,22.20
2017-12-31T23:15:30.846Z,22.20
2017-12-31T23:17:58.406Z,22.20
2017-12-31T23:20:25.992Z,22.10
2017-12-31T23:22:53.572Z,22.10
2017-12-31T23:25:21.932Z,22.10
2017-12-31T23:27:49.477Z,22.10
2017-12-31T23:30:17.056Z,22.10
2017-12-31T23:32:45.433Z,22.10
2017-12-31T23:35:12.987Z,22.10
2017-12-31T23:37:40.613Z,22.10
2017-12-31T23:40:08.330Z,22.10
2017-12-31T23:42:36.750Z,22.00
2017-12-31T23:45:04.320Z,22.10
2017-12-31T23:47:31.928Z,22.10
2017-12-31T23:50:00.363Z,22.10
2017-12-31T23:52:28.048Z,22.10
2017-12-31T23:54:56.565Z,22.10
2017-12-31T23:57:24.917Z,22.10
2017-12-31T23:59:53.308Z,22.10
